Terminal Aerodrome Forecast
Issued by NWS

Home | Current Version | Previous Version | Text Only | Print | Product List | Glossary On
Versions: 1 2 3 4 5 6 7 8 9 10 11 12 13 14 15 16 17 18
000
FTUS46 KSEW 230500
TAFOLM
TAF
KOLM 230538Z 2306/2406 19012KT P6SM SCT020 BKN040 BKN060
     FM231500 21012KT P6SM -SHRA BKN022 OVC050
     FM232100 21012KT P6SM -SHRA SCT025 BKN040 BKN070=

USA.gov is the U.S. government's official web portal to all federal, state and local government web resources and services.